Time;durP1;ratioP1;P1;durP2;ratioP2;P2;SDS_P1;SDS_P2;PMS_P1;PMS_P2;Temp;Humidity;BMP_temperature;BMP_pressure;BME280_temperature;BME280_humidity;BME280_pressure;Samples;Min_cycle;Max_cycle;Signal;HPM_P1;HPM_P2
2021/12/11 00:01:06;;;;;;;103.62;40.35;;;;;;;-0.68;99.44;97898.88;4052849;87;21084;-85
2021/12/11 00:07:13;;;;;;;106.37;41.53;;;;;;;-0.74;99.28;97904.78;4048937;85;21101;-84
2021/12/11 00:13:19;;;;;;;114.22;42.80;;;;;;;-0.80;99.51;97903.41;3945517;89;21081;-84
2021/12/11 00:19:29;;;;;;;110.10;44.58;;;;;;;-0.77;99.51;97903.55;4080016;86;21043;-83
2021/12/11 00:25:31;;;;;;;102.15;41.20;;;;;;;-1.06;99.57;97893.36;4077992;86;21080;-84
2021/12/11 00:31:34;;;;;;;100.25;40.55;;;;;;;-1.06;99.57;97893.36;4077561;85;21716;-83
2021/12/11 00:37:36;;;;;;;100.80;39.33;;;;;;;-1.00;99.62;97936.41;4071167;86;21061;-84
2021/12/11 00:43:41;;;;;;;106.15;44.15;;;;;;;-1.02;99.73;97952.05;4072837;86;21569;-82
2021/12/11 00:49:53;;;;;;;104.63;42.50;;;;;;;-1.15;100.00;97979.38;4081306;86;21035;-85
2021/12/11 00:56:03;;;;;;;114.22;44.90;;;;;;;-1.15;100.00;97979.38;4087073;85;20999;-84
2021/12/11 01:02:07;;;;;;;115.60;44.48;;;;;;;-1.09;100.00;97973.25;4074555;86;21053;-84
2021/12/11 01:08:20;;;;;;;113.25;43.80;;;;;;;-0.98;100.00;98004.80;4065878;86;21093;-84
2021/12/11 01:14:35;;;;;;;112.52;45.78;;;;;;;-0.90;100.00;98006.66;4065319;86;21107;-84
2021/12/11 01:20:54;;;;;;;110.63;42.55;;;;;;;-0.92;100.00;98019.63;4063554;86;21782;-85
2021/12/11 01:26:53;;;;;;;123.02;45.52;;;;;;;-0.99;100.00;98031.45;4056010;86;21097;-84
2021/12/11 01:32:55;;;;;;;121.02;45.45;;;;;;;-0.97;100.00;98026.52;4072754;86;21033;-87
2021/12/11 01:39:00;;;;;;;123.13;45.53;;;;;;;-0.99;100.00;98036.02;4078085;86;21554;-84
2021/12/11 01:45:07;;;;;;;118.87;44.80;;;;;;;-1.00;100.00;98041.17;4062555;86;21084;-85
2021/12/11 01:51:23;;;;;;;131.05;49.08;;;;;;;-0.89;100.00;98056.59;4073167;86;21096;-85
2021/12/11 01:57:29;;;;;;;94.90;36.45;;;;;;;-0.79;100.00;98054.90;4068734;86;21559;-84
2021/12/11 02:03:34;;;;;;;109.70;41.53;;;;;;;-0.73;100.00;98054.14;4062825;85;21078;-84
2021/12/11 02:09:39;;;;;;;120.60;46.00;;;;;;;-0.78;100.00;98051.09;4058135;86;21086;-84
2021/12/11 02:15:49;;;;;;;120.62;47.80;;;;;;;-0.95;100.00;98063.26;3971881;88;21708;-85
2021/12/11 02:21:57;;;;;;;102.22;39.60;;;;;;;-0.98;100.00;98063.11;3962622;89;21578;-84
2021/12/11 02:28:16;;;;;;;105.35;43.92;;;;;;;-1.11;100.00;98063.55;3998428;88;21681;-86
2021/12/11 02:34:40;;;;;;;116.85;44.98;;;;;;;-1.15;100.00;98074.71;3984398;88;21089;-86
2021/12/11 02:41:05;;;;;;;108.00;41.18;;;;;;;-0.99;100.00;98097.27;3970173;89;21102;-84
2021/12/11 02:47:21;;;;;;;122.42;42.45;;;;;;;-0.99;100.00;98110.69;4011915;88;21085;-84
2021/12/11 02:53:34;;;;;;;116.93;47.00;;;;;;;-0.91;100.00;98113.88;4004228;88;21073;-85
2021/12/11 02:59:41;;;;;;;128.50;44.45;;;;;;;-0.77;100.00;98123.09;4007669;88;21097;-86
2021/12/11 03:05:48;;;;;;;109.92;43.87;;;;;;;-0.67;100.00;98133.47;4049408;85;34378;-87
2021/12/11 03:11:48;;;;;;;112.55;44.55;;;;;;;-0.60;100.00;98133.23;4121781;85;21686;-86
2021/12/11 03:17:50;;;;;;;131.83;47.00;;;;;;;-0.72;100.00;98136.36;4117082;85;21316;-89
2021/12/11 03:23:54;;;;;;;128.53;45.55;;;;;;;-0.75;100.00;98139.70;4122199;85;21560;-84
2021/12/11 03:29:55;;;;;;;131.20;46.05;;;;;;;-0.66;100.00;98138.52;4129700;85;21656;-84
2021/12/11 03:35:57;;;;;;;134.78;48.50;;;;;;;-0.59;100.00;98138.83;4125837;85;21077;-85
2021/12/11 03:42:03;;;;;;;143.15;49.55;;;;;;;-0.49;100.00;98127.72;4117344;85;21037;-85
2021/12/11 03:48:13;;;;;;;122.75;42.13;;;;;;;-0.50;100.00;98126.13;4196818;83;21062;-84
2021/12/11 03:54:20;;;;;;;118.15;41.02;;;;;;;-0.47;100.00;98151.02;4198860;83;21081;-86
2021/12/11 04:00:24;;;;;;;100.60;40.12;;;;;;;-0.42;100.00;98167.52;4201492;83;21054;-85
2021/12/11 04:06:26;;;;;;;112.80;41.48;;;;;;;-0.54;100.00;98151.30;4194565;83;21070;-81
2021/12/11 04:12:27;;;;;;;108.03;38.85;;;;;;;-0.43;100.00;98167.30;4197124;83;21011;-84
2021/12/11 04:18:29;;;;;;;115.20;41.15;;;;;;;-0.43;100.00;98167.30;4197848;83;21114;-85
2021/12/11 04:24:33;;;;;;;120.77;43.55;;;;;;;-0.43;100.00;98176.72;4199038;83;21478;-82
2021/12/11 04:30:37;;;;;;;132.63;45.48;;;;;;;-0.46;100.00;98183.54;4196941;83;21077;-82
2021/12/11 04:36:44;;;;;;;112.25;43.92;;;;;;;-0.45;100.00;98195.86;4196991;83;21057;-83
2021/12/11 04:43:08;;;;;;;144.47;46.50;;;;;;;-0.46;100.00;98212.31;4196586;83;21026;-82
2021/12/11 04:49:27;;;;;;;136.47;48.20;;;;;;;-0.60;100.00;98184.30;4181377;83;21073;-84
2021/12/11 04:55:36;;;;;;;131.82;44.05;;;;;;;-0.39;100.00;98211.25;4191367;83;21063;-84
2021/12/11 05:08:13;;;;;;;102.92;38.63;;;;;;;-0.45;100.00;98238.88;4197905;83;20178;-83
2021/12/11 05:13:39;;;;;;;116.70;38.10;;;;;;;-0.44;100.00;98248.52;4179057;83;21593;-83
2021/12/11 05:19:42;;;;;;;137.85;43.50;;;;;;;-0.48;100.00;98258.89;4198201;83;22441;-84
2021/12/11 05:25:46;;;;;;;127.45;42.90;;;;;;;-0.56;100.00;98261.05;4198614;83;21580;-85
2021/12/11 05:31:48;;;;;;;132.85;45.25;;;;;;;-0.47;100.00;98272.59;4194559;83;21618;-82
2021/12/11 05:37:49;;;;;;;119.10;39.65;;;;;;;-0.45;100.00;98270.34;4193496;83;21569;-88
2021/12/11 05:43:53;;;;;;;132.35;45.35;;;;;;;-0.44;100.00;98306.33;4195891;83;21522;-83
2021/12/11 05:49:57;;;;;;;127.40;43.58;;;;;;;-0.44;100.00;98306.33;4204010;83;21446;-84
2021/12/11 05:56:05;;;;;;;120.50;40.95;;;;;;;-0.45;99.84;98299.92;4195841;83;21654;-83
2021/12/11 06:02:19;;;;;;;113.83;41.28;;;;;;;-0.54;99.88;98303.19;4199876;83;21074;-83
2021/12/11 06:08:20;;;;;;;99.17;37.98;;;;;;;-0.55;100.00;98308.34;4191474;83;21660;-85
2021/12/11 06:14:23;;;;;;;98.70;36.70;;;;;;;-0.60;99.67;98316.56;4206365;83;21111;-83
2021/12/11 06:20:28;;;;;;;110.63;38.42;;;;;;;-0.61;99.84;98325.17;4209593;83;21065;-84
2021/12/11 06:26:31;;;;;;;104.77;37.37;;;;;;;-0.58;100.00;98336.63;4202795;83;21930;-83
2021/12/11 06:32:34;;;;;;;99.05;37.42;;;;;;;-0.52;99.97;98352.06;4199120;83;21066;-85
2021/12/11 06:38:38;;;;;;;85.40;30.08;;;;;;;-0.66;100.00;98367.57;4195526;83;21058;-83
2021/12/11 06:44:40;;;;;;;87.37;32.73;;;;;;;-0.68;100.00;98383.22;4196567;83;20984;-83
2021/12/11 06:50:46;;;;;;;104.07;40.23;;;;;;;-0.61;100.00;98380.86;4173383;83;21054;-85
2021/12/11 06:56:49;;;;;;;123.92;43.83;;;;;;;-0.61;100.00;98380.86;4197306;83;114113;-84
2021/12/11 07:02:50;;;;;;;117.75;42.55;;;;;;;-0.55;100.00;98409.93;4184931;83;21010;-84
2021/12/11 07:08:53;;;;;;;118.65;40.05;;;;;;;-0.70;100.00;98430.56;4214064;83;21111;-83
2021/12/11 07:14:55;;;;;;;92.10;34.18;;;;;;;-0.70;100.00;98430.56;4208200;83;21060;-83
2021/12/11 07:20:57;;;;;;;115.22;40.43;;;;;;;-0.69;100.00;98432.71;4187195;83;21044;-85
2021/12/11 07:27:02;;;;;;;115.37;42.83;;;;;;;-0.69;100.00;98432.71;4174375;83;21094;-85
2021/12/11 07:33:05;;;;;;;120.65;44.18;;;;;;;-0.41;100.00;98437.45;4201427;83;21051;-84
2021/12/11 07:39:12;;;;;;;112.22;41.55;;;;;;;-0.41;100.00;98437.45;4200954;83;21035;-83
2021/12/11 07:45:15;;;;;;;108.78;42.08;;;;;;;-0.45;100.00;98470.66;4205853;83;21067;-83
2021/12/11 07:51:18;;;;;;;110.78;39.58;;;;;;;-0.57;99.95;98480.72;4209873;83;21049;-84
2021/12/11 07:57:20;;;;;;;110.45;37.63;;;;;;;-0.57;99.95;98480.72;4210230;83;21012;-84
2021/12/11 08:03:21;;;;;;;119.95;46.45;;;;;;;-0.71;100.00;98498.88;4204358;83;21058;-84
2021/12/11 08:09:23;;;;;;;109.00;36.80;;;;;;;-0.71;100.00;98498.88;4205998;83;21685;-84
2021/12/11 08:15:26;;;;;;;118.00;41.33;;;;;;;-0.66;100.00;98500.05;4200201;83;22309;-84
2021/12/11 08:21:28;;;;;;;117.03;42.98;;;;;;;-0.66;100.00;98500.05;4179693;83;21067;-84
2021/12/11 08:27:30;;;;;;;119.55;41.05;;;;;;;-0.54;100.00;98536.55;4204704;83;21524;-83
2021/12/11 08:33:31;;;;;;;119.37;41.15;;;;;;;-0.54;100.00;98536.55;4198922;83;21058;-84
2021/12/11 08:39:33;;;;;;;106.15;39.23;;;;;;;-0.67;100.00;98564.88;4209455;83;21038;-84
2021/12/11 08:45:47;;;;;;;104.45;37.48;;;;;;;-0.67;100.00;98564.88;4180166;83;21298;-84
2021/12/11 08:52:01;;;;;;;113.62;40.50;;;;;;;-0.41;100.00;98593.99;4202802;83;21681;-85
2021/12/11 08:58:07;;;;;;;142.97;51.30;;;;;;;-0.28;100.00;98597.08;4177818;83;21595;-85
2021/12/11 09:04:23;;;;;;;129.93;49.23;;;;;;;-0.28;99.74;98611.88;4106359;85;21066;-85
2021/12/11 09:10:36;;;;;;;170.97;56.80;;;;;;;-0.34;99.77;98609.90;4089800;85;21074;-84
2021/12/11 09:16:46;;;;;;;141.57;49.38;;;;;;;-0.29;99.82;98634.51;4142740;85;21057;-86
2021/12/11 09:22:53;;;;;;;138.05;47.38;;;;;;;-0.60;99.47;98632.44;4134039;85;21037;-83
2021/12/11 09:29:03;;;;;;;174.32;56.95;;;;;;;-0.42;99.96;98652.89;4146925;85;21696;-85
2021/12/11 09:35:12;;;;;;;159.12;57.95;;;;;;;-0.32;99.92;98659.34;4127331;85;21556;-85
2021/12/11 09:41:24;;;;;;;145.45;50.28;;;;;;;-0.28;99.63;98659.75;4133824;85;21038;-86
2021/12/11 09:47:31;;;;;;;127.78;48.20;;;;;;;-0.32;99.32;98658.00;4141647;85;21090;-86
2021/12/11 09:53:38;;;;;;;161.62;56.35;;;;;;;-0.28;99.26;98672.40;4168834;84;21083;-86
2021/12/11 09:59:42;;;;;;;195.35;67.65;;;;;;;-0.19;99.32;98675.93;4283235;83;21712;-87
2021/12/11 10:05:55;;;;;;;207.32;71.15;;;;;;;-0.11;99.41;98685.92;4286628;83;21074;-85
2021/12/11 10:12:09;;;;;;;197.75;69.80;;;;;;;-0.05;98.97;98688.70;4263552;83;21855;-86
2021/12/11 10:18:16;;;;;;;177.12;64.97;;;;;;;-0.06;98.82;98700.02;4246280;83;21062;-86
2021/12/11 10:24:23;;;;;;;166.18;59.13;;;;;;;-0.06;98.66;98695.97;4245547;83;21145;-87
2021/12/11 10:30:26;;;;;;;185.45;61.80;;;;;;;0.06;98.96;98700.77;4243097;83;21082;-86
2021/12/11 10:36:32;;;;;;;162.88;61.75;;;;;;;0.06;98.97;98712.08;4249716;83;22261;-86
2021/12/11 10:42:34;;;;;;;165.28;63.25;;;;;;;0.25;99.17;98717.98;4244465;83;21059;-86
2021/12/11 10:48:37;;;;;;;174.23;61.77;;;;;;;0.25;98.91;98720.09;4241410;83;21090;-88
2021/12/11 10:54:39;;;;;;;150.55;60.25;;;;;;;0.23;98.76;98706.72;4250265;83;21065;-85
2021/12/11 11:01:04;;;;;;;181.28;69.22;;;;;;;0.41;99.10;98715.08;4249791;82;21034;-86
2021/12/11 11:07:07;;;;;;;205.85;74.70;;;;;;;0.49;98.95;98722.34;4146252;84;21060;-86
2021/12/11 11:13:13;;;;;;;226.62;83.03;;;;;;;0.58;98.49;98726.64;4191075;83;21100;-89
2021/12/11 11:19:15;;;;;;;213.82;77.55;;;;;;;0.63;98.16;98728.37;4207286;83;21503;-86
2021/12/11 11:25:22;;;;;;;226.75;83.45;;;;;;;0.59;98.38;98734.98;4208269;83;21035;-87
2021/12/11 11:31:36;;;;;;;231.20;83.42;;;;;;;0.59;98.36;98742.25;4206037;83;21475;-87
2021/12/11 11:37:38;;;;;;;217.07;82.67;;;;;;;0.71;98.23;98743.76;4205232;83;21090;-86
2021/12/11 11:43:42;;;;;;;225.30;83.90;;;;;;;0.72;98.27;98748.83;4181620;83;21018;-85
2021/12/11 11:49:44;;;;;;;228.77;84.03;;;;;;;0.73;98.11;98749.09;4206206;83;21078;-86
2021/12/11 11:55:50;;;;;;;219.80;81.28;;;;;;;0.80;98.00;98766.13;4207086;83;21002;-85
2021/12/11 12:02:00;;;;;;;207.35;79.65;;;;;;;0.78;98.04;98784.51;4210167;83;21070;-86
2021/12/11 12:08:00;;;;;;;213.90;83.87;;;;;;;0.77;98.11;98786.95;4198928;83;21090;-86
2021/12/11 12:14:07;;;;;;;225.93;82.15;;;;;;;0.89;97.87;98783.09;4179995;83;21788;-85
2021/12/11 12:20:14;;;;;;;207.35;80.32;;;;;;;0.87;97.87;98786.65;4152886;84;21095;-85
2021/12/11 12:26:23;;;;;;;207.52;79.67;;;;;;;0.85;97.90;98787.52;4248988;83;21065;-86
2021/12/11 12:32:30;;;;;;;226.55;83.40;;;;;;;0.88;98.05;98792.27;4160723;84;21134;-86
2021/12/11 12:38:33;;;;;;;;;;;;;;;0.83;97.90;98797.27;4192760;84;21036;-86
2021/12/11 12:44:35;;;;;;;213.15;83.42;;;;;;;0.91;97.90;98791.66;4096881;86;20598;-86
2021/12/11 12:50:53;;;;;;;220.57;83.75;;;;;;;1.01;97.73;98793.48;4242816;83;21031;-87
2021/12/11 12:57:08;;;;;;;225.10;83.78;;;;;;;1.01;97.66;98795.38;4235676;83;21081;-86
2021/12/11 13:03:17;;;;;;;205.37;82.27;;;;;;;0.94;97.55;98799.11;4251312;83;21033;-85
2021/12/11 13:09:26;;;;;;;191.40;73.62;;;;;;;0.95;97.67;98806.08;4239328;83;21061;-85
2021/12/11 13:15:33;;;;;;;160.25;65.90;;;;;;;0.92;97.51;98806.16;4186224;83;21062;-86
2021/12/11 13:21:43;;;;;;;150.15;61.48;;;;;;;0.86;97.49;98808.75;4189574;83;21109;-85
2021/12/11 13:27:45;;;;;;;138.70;57.80;;;;;;;0.76;97.49;98812.31;4190554;83;21125;-85
2021/12/11 13:33:48;;;;;;;143.00;59.38;;;;;;;0.83;97.64;98804.57;4084556;86;21027;-86
2021/12/11 13:39:52;;;;;;;138.40;57.27;;;;;;;0.82;97.65;98807.01;4187467;83;54238;-87
2021/12/11 13:45:56;;;;;;;144.43;60.28;;;;;;;0.90;97.60;98819.70;4178209;83;21725;-87
2021/12/11 13:51:58;;;;;;;154.85;64.53;;;;;;;0.78;97.62;98833.01;4169811;83;21076;-87
2021/12/11 13:58:03;;;;;;;165.68;62.30;;;;;;;0.89;97.43;98839.69;4176098;84;21107;-85
2021/12/11 14:04:10;;;;;;;131.90;53.63;;;;;;;0.88;97.47;98847.52;4177234;83;22149;-86
2021/12/11 14:10:27;;;;;;;147.70;61.25;;;;;;;0.93;97.45;98860.30;4181048;83;21068;-86
2021/12/11 14:16:23;;;;;;;148.75;63.25;;;;;;;1.01;97.74;98881.63;4174221;83;21176;-85
2021/12/11 14:22:26;;;;;;;147.82;60.48;;;;;;;0.99;97.35;98885.19;4178710;83;21464;-85
2021/12/11 14:28:27;;;;;;;157.62;63.52;;;;;;;0.96;97.29;98887.16;4173258;83;21112;-87
2021/12/11 14:34:29;;;;;;;142.90;58.92;;;;;;;0.99;97.31;98901.36;4177329;83;21098;-85
2021/12/11 14:40:35;;;;;;;150.20;61.58;;;;;;;0.95;97.26;98912.54;4183358;83;21039;-88
2021/12/11 14:46:37;;;;;;;153.15;62.05;;;;;;;0.99;97.39;98924.27;4160392;84;21081;-88
2021/12/11 14:52:39;;;;;;;132.35;57.75;;;;;;;1.00;97.45;98940.13;4174685;83;22413;-85
2021/12/11 14:58:43;;;;;;;136.85;54.80;;;;;;;1.10;97.57;98942.54;4176130;83;21005;-86
2021/12/11 15:04:50;;;;;;;152.80;60.63;;;;;;;0.92;96.88;98943.62;4174671;83;21124;-87
2021/12/11 15:10:54;;;;;;;;;;;;;;;0.90;97.30;98951.22;4186083;84;21393;-87
2021/12/11 15:17:07;;;;;;;139.75;62.05;;;;;;;0.96;97.48;98963.98;4228622;83;20936;-86
2021/12/11 15:23:11;;;;;;;138.52;57.13;;;;;;;0.93;97.70;98975.39;4232819;83;21066;-85
2021/12/11 15:29:16;;;;;;;134.32;56.85;;;;;;;0.82;97.07;98978.92;4231057;83;21082;-86
2021/12/11 15:35:23;;;;;;;152.90;65.32;;;;;;;0.79;96.94;98986.28;4243489;83;21569;-87
2021/12/11 15:41:27;;;;;;;163.05;68.67;;;;;;;0.75;97.26;98989.34;4223658;83;21044;-86
2021/12/11 15:47:31;;;;;;;143.80;63.20;;;;;;;0.73;97.12;99002.89;4236785;83;21006;-87
2021/12/11 15:53:34;;;;;;;187.70;84.87;;;;;;;0.60;96.93;98999.73;4231341;83;21733;-87
2021/12/11 15:59:38;;;;;;;194.07;89.67;;;;;;;0.52;97.09;98989.16;4206463;83;21087;-88
2021/12/11 16:05:40;;;;;;;189.30;80.38;;;;;;;0.60;97.77;98999.19;4228455;83;21042;-85
2021/12/11 16:11:46;;;;;;;180.70;81.10;;;;;;;0.69;97.74;99018.87;4238796;83;21086;-86
2021/12/11 16:17:48;;;;;;;175.90;79.20;;;;;;;0.62;97.17;99033.91;4227003;83;21115;-88
2021/12/11 16:23:58;;;;;;;182.02;81.87;;;;;;;0.52;97.33;99058.42;4223628;83;21067;-85
2021/12/11 16:29:56;;;;;;;181.50;79.65;;;;;;;0.64;97.53;99059.45;4233063;83;21087;-87
2021/12/11 16:35:58;;;;;;;170.75;76.30;;;;;;;0.65;97.67;99061.03;4233781;83;21065;-87
2021/12/11 16:42:03;;;;;;;176.12;81.37;;;;;;;0.51;97.13;99091.83;4221118;83;21592;-87
2021/12/11 16:48:07;;;;;;;195.35;89.47;;;;;;;0.47;97.62;99088.17;4235661;83;21073;-88
2021/12/11 16:54:10;;;;;;;158.90;76.77;;;;;;;0.56;97.90;99104.64;4234805;83;21075;-86
2021/12/11 17:00:16;;;;;;;186.88;83.52;;;;;;;0.60;97.80;99107.48;4226056;83;21055;-86
2021/12/11 17:06:22;;;;;;;169.30;79.00;;;;;;;0.61;97.53;99115.83;4221577;83;21016;-87
2021/12/11 17:12:24;;;;;;;177.43;80.00;;;;;;;0.65;97.79;99124.87;4233889;83;21109;-86
2021/12/11 17:18:31;;;;;;;189.80;84.07;;;;;;;0.66;97.77;99126.49;4232327;83;20975;-85
2021/12/11 17:24:34;;;;;;;175.95;82.00;;;;;;;0.63;97.44;99127.08;4234027;83;21121;-86
2021/12/11 17:30:35;;;;;;;188.63;84.97;;;;;;;0.62;97.75;99133.58;4237111;83;21851;-86
2021/12/11 17:36:37;;;;;;;181.97;82.02;;;;;;;0.64;97.47;99146.20;4240129;83;21517;-88
2021/12/11 17:42:40;;;;;;;204.23;91.15;;;;;;;0.47;97.73;99165.70;4238545;83;21102;-86
2021/12/11 17:48:42;;;;;;;197.13;91.57;;;;;;;0.57;97.95;99168.72;4232035;83;21081;-85
2021/12/11 17:54:44;;;;;;;206.65;95.10;;;;;;;0.60;97.56;99184.27;4240791;83;21053;-86
2021/12/11 18:00:51;;;;;;;221.45;97.40;;;;;;;0.58;97.61;99191.88;4238698;83;21732;-86
2021/12/11 18:07:11;;;;;;;209.85;93.78;;;;;;;0.62;97.70;99191.50;4227820;83;21042;-85
2021/12/11 18:13:17;;;;;;;210.20;100.33;;;;;;;0.62;97.58;99199.58;4230078;83;21540;-85
2021/12/11 18:19:27;;;;;;;207.75;99.30;;;;;;;0.57;97.85;99206.42;4230406;83;21123;-85
2021/12/11 18:25:29;;;;;;;218.02;101.70;;;;;;;0.55;97.63;99219.42;4236375;83;21079;-85
2021/12/11 18:31:32;;;;;;;222.35;102.32;;;;;;;0.55;97.86;99218.08;4233799;83;21606;-87
2021/12/11 18:37:37;;;;;;;218.82;100.87;;;;;;;0.55;97.91;99215.38;4239487;83;22514;-89
2021/12/11 18:43:43;;;;;;;210.97;99.95;;;;;;;0.54;97.89;99202.45;4229786;83;21112;-86
2021/12/11 18:49:46;;;;;;;;;;;;;;;0.55;97.70;99208.66;4227880;83;21587;-85
2021/12/11 18:55:52;;;;;;;217.00;97.72;;;;;;;0.52;98.13;99221.38;4223039;83;20153;-86
2021/12/11 19:02:14;;;;;;;192.15;95.95;;;;;;;0.55;98.08;99224.81;4227619;83;22047;-85
2021/12/11 19:08:18;;;;;;;215.72;105.05;;;;;;;0.53;98.03;99229.70;4230138;83;21131;-86
2021/12/11 19:14:22;;;;;;;220.70;103.58;;;;;;;0.56;98.10;99247.95;4209269;83;21191;-85
2021/12/11 19:20:32;;;;;;;238.30;112.05;;;;;;;0.60;98.21;99257.81;4003128;87;21147;-87
2021/12/11 19:26:35;;;;;;;211.28;98.37;;;;;;;0.71;98.24;99268.61;4175736;83;21099;-86
2021/12/11 19:32:38;;;;;;;216.23;103.50;;;;;;;0.65;97.97;99285.98;4079250;86;21150;-86
2021/12/11 19:38:41;;;;;;;224.85;107.35;;;;;;;0.71;98.35;99298.25;4008926;87;21617;-86
2021/12/11 19:44:47;;;;;;;237.35;109.87;;;;;;;0.67;97.82;99309.94;4074200;86;21071;-85
2021/12/11 19:50:51;;;;;;;222.75;107.83;;;;;;;0.68;98.26;99322.30;4010272;87;21052;-86
2021/12/11 19:56:57;;;;;;;233.37;112.73;;;;;;;0.75;98.14;99326.73;4150277;83;21068;-86
2021/12/11 20:03:03;;;;;;;242.00;117.03;;;;;;;0.80;97.94;99342.23;4006688;87;21038;-87
2021/12/11 20:09:16;;;;;;;190.93;90.97;;;;;;;0.79;97.78;99349.27;4078195;86;21088;-86
2021/12/11 20:15:17;;;;;;;243.37;114.05;;;;;;;0.78;97.75;99355.78;4035305;86;21154;-85
2021/12/11 20:21:30;;;;;;;236.80;112.05;;;;;;;0.69;97.74;99358.94;4231639;83;21087;-87
2021/12/11 20:27:33;;;;;;;247.70;115.32;;;;;;;0.66;97.60;99360.89;4219320;83;21083;-86
2021/12/11 20:33:35;;;;;;;250.70;115.28;;;;;;;0.58;97.95;99361.59;4231441;83;21119;-86
2021/12/11 20:39:38;;;;;;;239.70;111.72;;;;;;;0.61;98.05;99367.73;4237209;83;21094;-86
2021/12/11 20:45:45;;;;;;;219.72;103.30;;;;;;;0.66;98.17;99373.02;4235666;83;22603;-86
2021/12/11 20:51:49;;;;;;;221.55;106.60;;;;;;;0.75;98.08;99374.67;4221780;83;21051;-86
2021/12/11 20:57:51;;;;;;;226.42;110.52;;;;;;;0.83;98.07;99396.09;4236944;83;21509;-86
2021/12/11 21:03:58;;;;;;;230.45;105.00;;;;;;;0.80;98.25;99390.74;4154866;84;21083;-86
2021/12/11 21:10:08;;;;;;;232.72;111.97;;;;;;;0.73;97.95;99401.69;4139158;84;21656;-86
2021/12/11 21:16:14;;;;;;;222.25;103.50;;;;;;;0.80;98.05;99407.48;4206953;83;21087;-85
2021/12/11 21:22:27;;;;;;;255.47;117.75;;;;;;;0.71;97.64;99428.13;4242259;83;21090;-86
2021/12/11 21:28:36;;;;;;;258.07;119.33;;;;;;;0.56;97.87;99449.45;4229972;83;21061;-86
2021/12/11 21:34:42;;;;;;;245.45;120.72;;;;;;;0.53;97.71;99450.59;4226777;83;21119;-87
2021/12/11 21:40:51;;;;;;;257.07;124.87;;;;;;;0.51;97.73;99462.20;4225136;83;21113;-86
2021/12/11 21:46:59;;;;;;;262.88;122.20;;;;;;;0.52;97.99;99474.59;4142877;84;21082;-87
2021/12/11 21:53:00;;;;;;;235.93;113.62;;;;;;;0.45;97.71;99479.02;4147062;84;21049;-88
2021/12/11 21:59:13;;;;;;;224.73;111.95;;;;;;;0.52;98.14;99483.45;4161268;84;21069;-87
2021/12/11 22:05:25;;;;;;;246.15;116.22;;;;;;;0.55;97.79;99473.42;4157858;84;21101;-86
2021/12/11 22:11:31;;;;;;;223.53;107.52;;;;;;;0.47;98.23;99469.29;4152602;84;21130;-85
2021/12/11 22:17:33;;;;;;;250.50;119.20;;;;;;;0.48;97.80;99481.11;4211912;83;21623;-86
2021/12/11 22:23:35;;;;;;;246.60;115.00;;;;;;;0.47;98.06;99486.80;4230055;83;21074;-86
2021/12/11 22:29:51;;;;;;;233.97;115.50;;;;;;;0.43;98.03;99479.85;4158589;84;21113;-86
2021/12/11 22:35:56;;;;;;;279.60;135.23;;;;;;;0.54;98.34;99485.30;4228579;83;21067;-87
2021/12/11 22:42:02;;;;;;;274.88;133.72;;;;;;;0.58;98.26;99497.07;4225015;83;21075;-85
2021/12/11 22:48:04;;;;;;;257.15;123.80;;;;;;;0.56;98.07;99497.94;4228749;83;21034;-85
2021/12/11 22:54:10;;;;;;;256.10;122.33;;;;;;;0.61;98.03;99488.39;4231480;83;21027;-85
2021/12/11 23:00:30;;;;;;;254.18;123.45;;;;;;;0.58;97.70;99492.25;4229518;83;21099;-87
2021/12/11 23:06:31;;;;;;;263.98;125.53;;;;;;;0.57;97.91;99480.67;4226338;83;21032;-86
2021/12/11 23:12:38;;;;;;;251.60;117.22;;;;;;;0.57;97.78;99483.36;4230066;83;20993;-85
2021/12/11 23:18:48;;;;;;;240.43;117.75;;;;;;;0.57;97.70;99480.67;4207216;83;21094;-86
2021/12/11 23:25:14;;;;;;;242.47;114.12;;;;;;;0.58;97.81;99476.87;4202749;83;21086;-87
2021/12/11 23:31:24;;;;;;;232.92;109.80;;;;;;;0.56;97.79;99472.88;4203112;83;21072;-86
2021/12/11 23:37:40;;;;;;;232.55;107.87;;;;;;;0.59;97.82;99473.09;4184875;83;21028;-85
2021/12/11 23:43:51;;;;;;;221.95;104.50;;;;;;;0.64;97.75;99477.59;4188051;83;21048;-86
2021/12/11 23:49:53;;;;;;;196.60;96.57;;;;;;;0.62;97.55;99491.89;4177945;83;21083;-87
2021/12/11 23:56:07;;;;;;;187.47;91.95;;;;;;;0.58;97.37;99498.98;4179069;83;22380;-86
